sensor_id;sensor_type;location;lat;lon;timestamp;P1;durP1;ratioP1;P2;durP2;ratioP2
50301;SDS011;36550;50.472;19.744;2024-03-22T00:00:51;62.10;;;28.40;;
50301;SDS011;36550;50.472;19.744;2024-03-22T00:03:36;58.00;;;28.10;;
50301;SDS011;36550;50.472;19.744;2024-03-22T00:06:20;58.10;;;27.30;;
50301;SDS011;36550;50.472;19.744;2024-03-22T00:09:04;68.40;;;30.30;;
50301;SDS011;36550;50.472;19.744;2024-03-22T00:11:49;55.20;;;27.10;;
50301;SDS011;36550;50.472;19.744;2024-03-22T00:14:33;48.60;;;26.00;;
50301;SDS011;36550;50.472;19.744;2024-03-22T00:17:17;50.70;;;27.50;;
50301;SDS011;36550;50.472;19.744;2024-03-22T00:20:00;56.80;;;28.00;;
50301;SDS011;36550;50.472;19.744;2024-03-22T00:22:45;54.40;;;28.40;;
50301;SDS011;36550;50.472;19.744;2024-03-22T00:25:29;55.70;;;28.90;;
50301;SDS011;36550;50.472;19.744;2024-03-22T00:28:13;56.40;;;28.80;;
50301;SDS011;36550;50.472;19.744;2024-03-22T00:30:57;60.10;;;30.30;;
50301;SDS011;36550;50.472;19.744;2024-03-22T00:33:41;60.30;;;30.90;;
50301;SDS011;36550;50.472;19.744;2024-03-22T00:36:25;61.40;;;32.90;;
50301;SDS011;36550;50.472;19.744;2024-03-22T00:39:10;69.60;;;34.90;;
50301;SDS011;36550;50.472;19.744;2024-03-22T00:41:54;69.20;;;33.90;;
50301;SDS011;36550;50.472;19.744;2024-03-22T00:44:39;61.70;;;29.60;;
50301;SDS011;36550;50.472;19.744;2024-03-22T00:47:23;58.30;;;29.40;;
50301;SDS011;36550;50.472;19.744;2024-03-22T00:50:08;59.90;;;28.50;;
50301;SDS011;36550;50.472;19.744;2024-03-22T00:52:53;55.50;;;29.40;;
50301;SDS011;36550;50.472;19.744;2024-03-22T00:55:40;60.80;;;30.10;;
50301;SDS011;36550;50.472;19.744;2024-03-22T00:58:24;56.80;;;30.60;;
50301;SDS011;36550;50.472;19.744;2024-03-22T01:01:09;60.60;;;29.80;;
50301;SDS011;36550;50.472;19.744;2024-03-22T01:03:53;56.90;;;28.00;;
50301;SDS011;36550;50.472;19.744;2024-03-22T01:06:37;57.80;;;28.80;;
50301;SDS011;36550;50.472;19.744;2024-03-22T01:09:23;56.20;;;30.30;;
50301;SDS011;36550;50.472;19.744;2024-03-22T01:12:08;59.90;;;29.20;;
50301;SDS011;36550;50.472;19.744;2024-03-22T01:14:53;57.30;;;31.10;;
50301;SDS011;36550;50.472;19.744;2024-03-22T01:17:38;53.70;;;30.20;;
50301;SDS011;36550;50.472;19.744;2024-03-22T01:20:22;50.80;;;27.50;;
50301;SDS011;36550;50.472;19.744;2024-03-22T01:23:06;54.70;;;27.50;;
50301;SDS011;36550;50.472;19.744;2024-03-22T01:25:50;50.20;;;26.20;;
50301;SDS011;36550;50.472;19.744;2024-03-22T01:28:34;52.60;;;26.90;;
50301;SDS011;36550;50.472;19.744;2024-03-22T01:31:18;51.70;;;28.40;;
50301;SDS011;36550;50.472;19.744;2024-03-22T01:34:03;54.50;;;28.00;;
50301;SDS011;36550;50.472;19.744;2024-03-22T01:36:47;50.50;;;27.20;;
50301;SDS011;36550;50.472;19.744;2024-03-22T01:39:31;54.90;;;28.20;;
50301;SDS011;36550;50.472;19.744;2024-03-22T01:42:15;51.10;;;26.70;;
50301;SDS011;36550;50.472;19.744;2024-03-22T01:45:01;48.10;;;27.00;;
50301;SDS011;36550;50.472;19.744;2024-03-22T01:47:45;50.40;;;26.10;;
50301;SDS011;36550;50.472;19.744;2024-03-22T01:50:29;53.80;;;26.50;;
50301;SDS011;36550;50.472;19.744;2024-03-22T01:53:14;50.10;;;26.60;;
50301;SDS011;36550;50.472;19.744;2024-03-22T01:55:58;49.20;;;26.50;;
50301;SDS011;36550;50.472;19.744;2024-03-22T01:58:42;45.90;;;25.80;;
50301;SDS011;36550;50.472;19.744;2024-03-22T02:01:27;48.80;;;25.00;;
50301;SDS011;36550;50.472;19.744;2024-03-22T02:04:11;47.70;;;24.40;;
50301;SDS011;36550;50.472;19.744;2024-03-22T02:06:55;44.10;;;22.90;;
50301;SDS011;36550;50.472;19.744;2024-03-22T02:09:39;41.00;;;22.40;;
50301;SDS011;36550;50.472;19.744;2024-03-22T02:12:23;41.80;;;22.60;;
50301;SDS011;36550;50.472;19.744;2024-03-22T02:15:07;38.90;;;21.60;;
50301;SDS011;36550;50.472;19.744;2024-03-22T02:17:52;33.70;;;19.30;;
50301;SDS011;36550;50.472;19.744;2024-03-22T02:20:36;34.70;;;20.90;;
50301;SDS011;36550;50.472;19.744;2024-03-22T02:23:36;36.70;;;20.40;;
50301;SDS011;36550;50.472;19.744;2024-03-22T02:26:22;31.00;;;17.80;;
50301;SDS011;36550;50.472;19.744;2024-03-22T02:29:06;27.90;;;17.10;;
50301;SDS011;36550;50.472;19.744;2024-03-22T02:31:51;30.90;;;18.90;;
50301;SDS011;36550;50.472;19.744;2024-03-22T02:34:35;31.10;;;17.80;;
50301;SDS011;36550;50.472;19.744;2024-03-22T02:37:19;35.70;;;20.40;;
50301;SDS011;36550;50.472;19.744;2024-03-22T02:40:03;31.90;;;18.20;;
50301;SDS011;36550;50.472;19.744;2024-03-22T02:42:47;29.50;;;17.40;;
50301;SDS011;36550;50.472;19.744;2024-03-22T02:45:32;29.10;;;18.70;;
50301;SDS011;36550;50.472;19.744;2024-03-22T02:48:16;27.20;;;16.70;;
50301;SDS011;36550;50.472;19.744;2024-03-22T02:51:01;27.80;;;17.10;;
50301;SDS011;36550;50.472;19.744;2024-03-22T02:53:45;29.50;;;17.50;;
50301;SDS011;36550;50.472;19.744;2024-03-22T02:56:29;28.80;;;17.30;;
50301;SDS011;36550;50.472;19.744;2024-03-22T02:59:13;29.30;;;17.50;;
50301;SDS011;36550;50.472;19.744;2024-03-22T03:01:57;31.30;;;17.30;;
50301;SDS011;36550;50.472;19.744;2024-03-22T03:04:41;33.30;;;19.50;;
50301;SDS011;36550;50.472;19.744;2024-03-22T03:07:25;33.40;;;18.40;;
50301;SDS011;36550;50.472;19.744;2024-03-22T03:10:11;30.90;;;18.50;;
50301;SDS011;36550;50.472;19.744;2024-03-22T03:12:55;30.70;;;18.80;;
50301;SDS011;36550;50.472;19.744;2024-03-22T03:15:39;32.50;;;18.80;;
50301;SDS011;36550;50.472;19.744;2024-03-22T03:18:23;31.50;;;19.30;;
50301;SDS011;36550;50.472;19.744;2024-03-22T03:21:08;32.20;;;18.40;;
50301;SDS011;36550;50.472;19.744;2024-03-22T03:23:52;34.10;;;19.40;;
50301;SDS011;36550;50.472;19.744;2024-03-22T03:26:36;31.50;;;18.90;;
50301;SDS011;36550;50.472;19.744;2024-03-22T03:29:20;31.90;;;17.60;;
50301;SDS011;36550;50.472;19.744;2024-03-22T03:32:05;33.00;;;19.00;;
50301;SDS011;36550;50.472;19.744;2024-03-22T03:34:49;32.00;;;18.80;;
50301;SDS011;36550;50.472;19.744;2024-03-22T03:37:33;32.90;;;19.10;;
50301;SDS011;36550;50.472;19.744;2024-03-22T03:40:17;32.50;;;18.50;;
50301;SDS011;36550;50.472;19.744;2024-03-22T03:43:01;33.70;;;20.10;;
50301;SDS011;36550;50.472;19.744;2024-03-22T03:45:46;32.50;;;20.00;;
50301;SDS011;36550;50.472;19.744;2024-03-22T03:48:30;34.50;;;19.40;;
50301;SDS011;36550;50.472;19.744;2024-03-22T03:51:14;36.00;;;20.20;;
50301;SDS011;36550;50.472;19.744;2024-03-22T03:53:58;36.50;;;19.90;;
50301;SDS011;36550;50.472;19.744;2024-03-22T03:56:42;38.60;;;20.80;;
50301;SDS011;36550;50.472;19.744;2024-03-22T03:59:26;34.30;;;19.60;;
50301;SDS011;36550;50.472;19.744;2024-03-22T04:02:10;37.40;;;19.70;;
50301;SDS011;36550;50.472;19.744;2024-03-22T04:04:54;35.50;;;21.30;;
50301;SDS011;36550;50.472;19.744;2024-03-22T04:07:38;38.60;;;21.30;;
50301;SDS011;36550;50.472;19.744;2024-03-22T04:10:23;39.10;;;21.30;;
50301;SDS011;36550;50.472;19.744;2024-03-22T04:13:07;36.60;;;21.50;;
50301;SDS011;36550;50.472;19.744;2024-03-22T04:15:53;38.50;;;21.20;;
50301;SDS011;36550;50.472;19.744;2024-03-22T04:18:37;36.30;;;20.90;;
50301;SDS011;36550;50.472;19.744;2024-03-22T04:21:22;37.30;;;20.10;;
50301;SDS011;36550;50.472;19.744;2024-03-22T04:24:06;39.30;;;21.80;;
50301;SDS011;36550;50.472;19.744;2024-03-22T04:26:50;32.80;;;19.40;;
50301;SDS011;36550;50.472;19.744;2024-03-22T04:29:34;32.90;;;19.90;;
50301;SDS011;36550;50.472;19.744;2024-03-22T04:32:19;36.00;;;19.70;;
50301;SDS011;36550;50.472;19.744;2024-03-22T04:35:03;33.70;;;20.30;;
50301;SDS011;36550;50.472;19.744;2024-03-22T04:37:47;32.70;;;20.80;;
50301;SDS011;36550;50.472;19.744;2024-03-22T04:40:31;31.50;;;19.80;;
50301;SDS011;36550;50.472;19.744;2024-03-22T04:43:15;34.70;;;19.90;;
50301;SDS011;36550;50.472;19.744;2024-03-22T04:46:00;38.00;;;20.80;;
50301;SDS011;36550;50.472;19.744;2024-03-22T04:48:44;48.00;;;21.10;;
50301;SDS011;36550;50.472;19.744;2024-03-22T04:51:28;56.20;;;25.00;;
50301;SDS011;36550;50.472;19.744;2024-03-22T04:54:11;73.10;;;29.30;;
50301;SDS011;36550;50.472;19.744;2024-03-22T04:56:56;58.00;;;28.90;;
50301;SDS011;36550;50.472;19.744;2024-03-22T04:59:40;45.10;;;23.50;;
50301;SDS011;36550;50.472;19.744;2024-03-22T05:02:24;37.30;;;21.70;;
50301;SDS011;36550;50.472;19.744;2024-03-22T05:05:08;39.80;;;22.80;;
50301;SDS011;36550;50.472;19.744;2024-03-22T05:07:53;48.80;;;26.80;;
50301;SDS011;36550;50.472;19.744;2024-03-22T05:10:37;58.20;;;30.70;;
50301;SDS011;36550;50.472;19.744;2024-03-22T05:13:22;38.50;;;23.30;;
50301;SDS011;36550;50.472;19.744;2024-03-22T05:16:06;37.40;;;20.90;;
50301;SDS011;36550;50.472;19.744;2024-03-22T05:18:51;33.70;;;21.30;;
50301;SDS011;36550;50.472;19.744;2024-03-22T05:21:35;37.10;;;21.00;;
50301;SDS011;36550;50.472;19.744;2024-03-22T05:24:19;34.40;;;19.80;;
50301;SDS011;36550;50.472;19.744;2024-03-22T05:27:03;34.90;;;20.50;;
50301;SDS011;36550;50.472;19.744;2024-03-22T05:29:47;34.60;;;19.80;;
50301;SDS011;36550;50.472;19.744;2024-03-22T05:32:32;30.30;;;20.50;;
50301;SDS011;36550;50.472;19.744;2024-03-22T05:35:16;32.70;;;20.20;;
50301;SDS011;36550;50.472;19.744;2024-03-22T05:38:00;30.70;;;18.40;;
50301;SDS011;36550;50.472;19.744;2024-03-22T05:40:44;30.70;;;19.40;;
50301;SDS011;36550;50.472;19.744;2024-03-22T05:43:31;29.60;;;18.70;;
50301;SDS011;36550;50.472;19.744;2024-03-22T05:46:16;33.90;;;20.60;;
50301;SDS011;36550;50.472;19.744;2024-03-22T05:49:00;28.80;;;18.20;;
50301;SDS011;36550;50.472;19.744;2024-03-22T05:51:44;27.50;;;17.50;;
50301;SDS011;36550;50.472;19.744;2024-03-22T05:54:28;27.70;;;17.80;;
50301;SDS011;36550;50.472;19.744;2024-03-22T05:57:12;24.40;;;15.00;;
50301;SDS011;36550;50.472;19.744;2024-03-22T05:59:56;24.50;;;15.50;;
50301;SDS011;36550;50.472;19.744;2024-03-22T06:02:41;28.10;;;17.70;;
50301;SDS011;36550;50.472;19.744;2024-03-22T06:05:25;28.60;;;16.20;;
50301;SDS011;36550;50.472;19.744;2024-03-22T06:08:09;24.40;;;15.70;;
50301;SDS011;36550;50.472;19.744;2024-03-22T06:10:54;26.20;;;16.90;;
50301;SDS011;36550;50.472;19.744;2024-03-22T06:13:39;28.10;;;16.10;;
50301;SDS011;36550;50.472;19.744;2024-03-22T06:16:23;25.10;;;15.70;;
50301;SDS011;36550;50.472;19.744;2024-03-22T06:19:07;28.80;;;15.50;;
50301;SDS011;36550;50.472;19.744;2024-03-22T06:21:52;29.10;;;16.90;;
50301;SDS011;36550;50.472;19.744;2024-03-22T06:24:36;27.00;;;15.10;;
50301;SDS011;36550;50.472;19.744;2024-03-22T06:27:20;27.40;;;17.40;;
50301;SDS011;36550;50.472;19.744;2024-03-22T06:30:04;32.10;;;19.20;;
50301;SDS011;36550;50.472;19.744;2024-03-22T06:32:48;31.40;;;19.50;;
50301;SDS011;36550;50.472;19.744;2024-03-22T06:35:32;29.70;;;16.90;;
50301;SDS011;36550;50.472;19.744;2024-03-22T06:38:16;26.40;;;16.90;;
50301;SDS011;36550;50.472;19.744;2024-03-22T06:41:01;28.90;;;18.00;;
50301;SDS011;36550;50.472;19.744;2024-03-22T06:43:45;27.90;;;17.60;;
50301;SDS011;36550;50.472;19.744;2024-03-22T06:46:31;24.20;;;16.60;;
50301;SDS011;36550;50.472;19.744;2024-03-22T06:49:15;26.70;;;17.50;;
50301;SDS011;36550;50.472;19.744;2024-03-22T06:51:59;30.30;;;17.90;;
50301;SDS011;36550;50.472;19.744;2024-03-22T06:54:43;27.80;;;17.40;;
50301;SDS011;36550;50.472;19.744;2024-03-22T06:57:27;28.90;;;17.50;;
50301;SDS011;36550;50.472;19.744;2024-03-22T07:00:12;28.00;;;17.80;;
50301;SDS011;36550;50.472;19.744;2024-03-22T07:02:57;30.60;;;18.10;;
50301;SDS011;36550;50.472;19.744;2024-03-22T07:05:41;26.30;;;17.10;;
50301;SDS011;36550;50.472;19.744;2024-03-22T07:08:25;26.80;;;17.40;;
50301;SDS011;36550;50.472;19.744;2024-03-22T07:11:09;30.10;;;17.60;;
50301;SDS011;36550;50.472;19.744;2024-03-22T07:13:54;28.20;;;19.20;;
50301;SDS011;36550;50.472;19.744;2024-03-22T07:16:37;33.00;;;21.40;;
50301;SDS011;36550;50.472;19.744;2024-03-22T07:19:22;30.20;;;20.10;;
50301;SDS011;36550;50.472;19.744;2024-03-22T07:22:06;30.60;;;18.80;;
50301;SDS011;36550;50.472;19.744;2024-03-22T07:24:51;33.80;;;20.80;;
50301;SDS011;36550;50.472;19.744;2024-03-22T07:27:38;37.90;;;21.30;;
50301;SDS011;36550;50.472;19.744;2024-03-22T07:30:22;30.30;;;19.10;;
50301;SDS011;36550;50.472;19.744;2024-03-22T07:33:06;31.50;;;19.80;;
50301;SDS011;36550;50.472;19.744;2024-03-22T07:35:50;28.70;;;19.20;;
50301;SDS011;36550;50.472;19.744;2024-03-22T07:38:35;28.10;;;19.30;;
50301;SDS011;36550;50.472;19.744;2024-03-22T07:41:19;38.00;;;23.50;;
50301;SDS011;36550;50.472;19.744;2024-03-22T07:44:03;32.60;;;19.60;;
50301;SDS011;36550;50.472;19.744;2024-03-22T07:46:49;30.30;;;18.20;;
50301;SDS011;36550;50.472;19.744;2024-03-22T07:49:33;26.50;;;16.80;;
50301;SDS011;36550;50.472;19.744;2024-03-22T07:52:18;25.10;;;16.30;;
50301;SDS011;36550;50.472;19.744;2024-03-22T07:55:02;23.10;;;16.00;;
50301;SDS011;36550;50.472;19.744;2024-03-22T07:57:46;25.20;;;16.00;;
50301;SDS011;36550;50.472;19.744;2024-03-22T08:00:31;28.20;;;16.20;;
50301;SDS011;36550;50.472;19.744;2024-03-22T08:03:15;27.80;;;17.60;;
50301;SDS011;36550;50.472;19.744;2024-03-22T08:05:59;29.10;;;18.20;;
50301;SDS011;36550;50.472;19.744;2024-03-22T08:08:43;30.00;;;19.00;;
50301;SDS011;36550;50.472;19.744;2024-03-22T08:11:27;27.60;;;18.30;;
50301;SDS011;36550;50.472;19.744;2024-03-22T08:14:11;28.70;;;18.60;;
50301;SDS011;36550;50.472;19.744;2024-03-22T08:16:56;33.50;;;20.30;;
50301;SDS011;36550;50.472;19.744;2024-03-22T08:19:40;30.10;;;19.80;;
50301;SDS011;36550;50.472;19.744;2024-03-22T08:22:24;29.90;;;19.80;;
50301;SDS011;36550;50.472;19.744;2024-03-22T08:25:08;32.40;;;20.10;;
50301;SDS011;36550;50.472;19.744;2024-03-22T08:27:52;33.70;;;19.70;;
50301;SDS011;36550;50.472;19.744;2024-03-22T08:30:39;28.60;;;18.70;;
50301;SDS011;36550;50.472;19.744;2024-03-22T08:33:23;38.70;;;18.80;;
50301;SDS011;36550;50.472;19.744;2024-03-22T08:36:07;29.40;;;17.20;;
50301;SDS011;36550;50.472;19.744;2024-03-22T08:38:51;26.00;;;17.20;;
50301;SDS011;36550;50.472;19.744;2024-03-22T08:41:36;22.50;;;14.70;;
50301;SDS011;36550;50.472;19.744;2024-03-22T08:44:21;26.30;;;15.80;;
50301;SDS011;36550;50.472;19.744;2024-03-22T08:47:06;23.10;;;14.80;;
50301;SDS011;36550;50.472;19.744;2024-03-22T08:49:50;30.20;;;16.40;;
50301;SDS011;36550;50.472;19.744;2024-03-22T08:52:34;27.00;;;15.20;;
50301;SDS011;36550;50.472;19.744;2024-03-22T08:55:19;26.20;;;14.90;;
50301;SDS011;36550;50.472;19.744;2024-03-22T08:58:04;22.50;;;13.80;;
50301;SDS011;36550;50.472;19.744;2024-03-22T09:00:48;19.60;;;13.00;;
50301;SDS011;36550;50.472;19.744;2024-03-22T09:03:33;23.40;;;14.50;;
50301;SDS011;36550;50.472;19.744;2024-03-22T09:06:17;20.50;;;12.80;;
50301;SDS011;36550;50.472;19.744;2024-03-22T09:09:01;21.10;;;12.80;;
50301;SDS011;36550;50.472;19.744;2024-03-22T09:11:47;24.00;;;14.70;;
50301;SDS011;36550;50.472;19.744;2024-03-22T09:14:32;25.10;;;13.80;;
50301;SDS011;36550;50.472;19.744;2024-03-22T09:17:15;26.00;;;16.20;;
50301;SDS011;36550;50.472;19.744;2024-03-22T09:20:00;26.60;;;14.80;;
50301;SDS011;36550;50.472;19.744;2024-03-22T09:22:45;23.70;;;15.90;;
50301;SDS011;36550;50.472;19.744;2024-03-22T09:25:30;25.30;;;15.70;;
50301;SDS011;36550;50.472;19.744;2024-03-22T09:28:14;25.80;;;15.90;;
50301;SDS011;36550;50.472;19.744;2024-03-22T09:31:03;25.00;;;16.60;;
50301;SDS011;36550;50.472;19.744;2024-03-22T09:33:49;30.60;;;15.80;;
50301;SDS011;36550;50.472;19.744;2024-03-22T09:36:34;23.40;;;14.90;;
50301;SDS011;36550;50.472;19.744;2024-03-22T09:39:19;28.40;;;17.30;;
50301;SDS011;36550;50.472;19.744;2024-03-22T09:42:03;41.00;;;21.10;;
50301;SDS011;36550;50.472;19.744;2024-03-22T09:44:50;31.80;;;18.60;;
50301;SDS011;36550;50.472;19.744;2024-03-22T09:47:37;29.20;;;17.10;;
50301;SDS011;36550;50.472;19.744;2024-03-22T09:50:21;22.20;;;14.70;;
50301;SDS011;36550;50.472;19.744;2024-03-22T09:53:05;27.50;;;15.60;;
50301;SDS011;36550;50.472;19.744;2024-03-22T09:55:50;21.20;;;14.90;;
50301;SDS011;36550;50.472;19.744;2024-03-22T09:58:35;20.00;;;12.80;;
50301;SDS011;36550;50.472;19.744;2024-03-22T10:01:19;19.50;;;10.60;;
50301;SDS011;36550;50.472;19.744;2024-03-22T10:04:04;14.90;;;10.30;;
50301;SDS011;36550;50.472;19.744;2024-03-22T10:06:49;15.60;;;10.20;;
50301;SDS011;36550;50.472;19.744;2024-03-22T10:09:33;13.60;;;8.50;;
50301;SDS011;36550;50.472;19.744;2024-03-22T10:12:17;14.40;;;8.60;;
50301;SDS011;36550;50.472;19.744;2024-03-22T10:15:01;15.10;;;8.80;;
50301;SDS011;36550;50.472;19.744;2024-03-22T10:17:46;11.70;;;7.10;;
50301;SDS011;36550;50.472;19.744;2024-03-22T10:20:30;11.00;;;7.10;;
50301;SDS011;36550;50.472;19.744;2024-03-22T10:23:14;11.10;;;7.40;;
50301;SDS011;36550;50.472;19.744;2024-03-22T10:25:58;12.40;;;8.80;;
50301;SDS011;36550;50.472;19.744;2024-03-22T10:28:46;14.70;;;11.10;;
50301;SDS011;36550;50.472;19.744;2024-03-22T10:31:31;17.40;;;11.60;;
50301;SDS011;36550;50.472;19.744;2024-03-22T10:34:16;14.60;;;10.80;;
50301;SDS011;36550;50.472;19.744;2024-03-22T10:37:01;17.00;;;11.50;;
50301;SDS011;36550;50.472;19.744;2024-03-22T10:39:48;17.60;;;12.10;;
50301;SDS011;36550;50.472;19.744;2024-03-22T10:42:43;20.20;;;11.90;;
50301;SDS011;36550;50.472;19.744;2024-03-22T10:45:28;16.80;;;11.90;;
50301;SDS011;36550;50.472;19.744;2024-03-22T10:48:13;16.10;;;11.70;;
50301;SDS011;36550;50.472;19.744;2024-03-22T10:51:02;15.60;;;10.50;;
50301;SDS011;36550;50.472;19.744;2024-03-22T10:53:46;17.70;;;11.10;;
50301;SDS011;36550;50.472;19.744;2024-03-22T10:56:31;18.30;;;11.40;;
50301;SDS011;36550;50.472;19.744;2024-03-22T10:59:19;16.50;;;11.70;;
50301;SDS011;36550;50.472;19.744;2024-03-22T11:02:04;17.40;;;11.00;;
50301;SDS011;36550;50.472;19.744;2024-03-22T11:04:55;23.00;;;11.40;;
50301;SDS011;36550;50.472;19.744;2024-03-22T11:07:40;17.50;;;12.00;;
50301;SDS011;36550;50.472;19.744;2024-03-22T11:10:28;19.80;;;12.30;;
50301;SDS011;36550;50.472;19.744;2024-03-22T11:13:16;18.20;;;12.20;;
50301;SDS011;36550;50.472;19.744;2024-03-22T11:16:01;15.40;;;10.80;;
50301;SDS011;36550;50.472;19.744;2024-03-22T11:18:46;15.80;;;11.10;;
50301;SDS011;36550;50.472;19.744;2024-03-22T11:21:33;18.80;;;11.50;;
50301;SDS011;36550;50.472;19.744;2024-03-22T11:24:17;24.60;;;11.60;;
50301;SDS011;36550;50.472;19.744;2024-03-22T11:27:01;17.90;;;11.20;;
50301;SDS011;36550;50.472;19.744;2024-03-22T11:29:46;16.30;;;9.90;;
50301;SDS011;36550;50.472;19.744;2024-03-22T11:32:30;12.30;;;8.40;;
50301;SDS011;36550;50.472;19.744;2024-03-22T11:35:14;15.90;;;9.70;;
50301;SDS011;36550;50.472;19.744;2024-03-22T11:37:58;13.70;;;9.40;;
50301;SDS011;36550;50.472;19.744;2024-03-22T11:40:43;13.80;;;8.60;;
50301;SDS011;36550;50.472;19.744;2024-03-22T11:43:29;11.80;;;7.50;;
50301;SDS011;36550;50.472;19.744;2024-03-22T11:46:14;13.70;;;8.40;;
50301;SDS011;36550;50.472;19.744;2024-03-22T11:48:59;10.50;;;8.00;;
50301;SDS011;36550;50.472;19.744;2024-03-22T11:51:44;10.90;;;8.00;;
50301;SDS011;36550;50.472;19.744;2024-03-22T11:54:29;15.70;;;8.60;;
50301;SDS011;36550;50.472;19.744;2024-03-22T11:59:59;18.80;;;9.90;;
50301;SDS011;36550;50.472;19.744;2024-03-22T12:02:45;17.60;;;8.90;;
50301;SDS011;36550;50.472;19.744;2024-03-22T12:05:30;17.60;;;9.50;;
50301;SDS011;36550;50.472;19.744;2024-03-22T12:08:15;16.00;;;9.30;;
50301;SDS011;36550;50.472;19.744;2024-03-22T12:10:59;13.70;;;7.30;;
50301;SDS011;36550;50.472;19.744;2024-03-22T12:13:43;9.80;;;7.70;;
50301;SDS011;36550;50.472;19.744;2024-03-22T12:16:28;10.40;;;6.90;;
50301;SDS011;36550;50.472;19.744;2024-03-22T12:19:12;13.20;;;7.40;;
50301;SDS011;36550;50.472;19.744;2024-03-22T12:21:56;12.40;;;8.10;;
50301;SDS011;36550;50.472;19.744;2024-03-22T12:24:41;19.60;;;12.20;;
50301;SDS011;36550;50.472;19.744;2024-03-22T12:27:25;12.50;;;8.90;;
50301;SDS011;36550;50.472;19.744;2024-03-22T12:30:10;15.00;;;9.30;;
50301;SDS011;36550;50.472;19.744;2024-03-22T12:32:55;15.30;;;11.40;;
50301;SDS011;36550;50.472;19.744;2024-03-22T12:35:40;13.90;;;9.10;;
50301;SDS011;36550;50.472;19.744;2024-03-22T12:41:09;12.40;;;7.90;;
50301;SDS011;36550;50.472;19.744;2024-03-22T12:43:54;17.70;;;10.70;;
50301;SDS011;36550;50.472;19.744;2024-03-22T12:46:39;14.80;;;7.50;;
50301;SDS011;36550;50.472;19.744;2024-03-22T12:49:26;9.70;;;7.20;;
50301;SDS011;36550;50.472;19.744;2024-03-22T12:52:10;13.70;;;8.40;;
50301;SDS011;36550;50.472;19.744;2024-03-22T12:54:55;11.40;;;7.90;;
50301;SDS011;36550;50.472;19.744;2024-03-22T12:57:39;12.70;;;9.00;;
50301;SDS011;36550;50.472;19.744;2024-03-22T13:00:23;11.50;;;7.50;;
50301;SDS011;36550;50.472;19.744;2024-03-22T13:03:07;9.80;;;7.20;;
50301;SDS011;36550;50.472;19.744;2024-03-22T13:05:51;10.60;;;7.70;;
50301;SDS011;36550;50.472;19.744;2024-03-22T13:08:35;11.40;;;7.70;;
50301;SDS011;36550;50.472;19.744;2024-03-22T13:11:19;24.00;;;7.70;;
50301;SDS011;36550;50.472;19.744;2024-03-22T13:14:04;14.10;;;7.30;;
50301;SDS011;36550;50.472;19.744;2024-03-22T13:16:48;12.00;;;7.70;;
50301;SDS011;36550;50.472;19.744;2024-03-22T13:19:32;10.40;;;7.10;;
50301;SDS011;36550;50.472;19.744;2024-03-22T13:22:16;12.20;;;8.70;;
50301;SDS011;36550;50.472;19.744;2024-03-22T13:25:05;15.80;;;8.20;;
50301;SDS011;36550;50.472;19.744;2024-03-22T13:27:51;15.40;;;7.70;;
50301;SDS011;36550;50.472;19.744;2024-03-22T13:30:34;11.70;;;7.90;;
50301;SDS011;36550;50.472;19.744;2024-03-22T13:33:21;14.40;;;8.20;;
50301;SDS011;36550;50.472;19.744;2024-03-22T13:36:06;9.50;;;7.50;;
50301;SDS011;36550;50.472;19.744;2024-03-22T13:38:50;14.90;;;7.80;;
50301;SDS011;36550;50.472;19.744;2024-03-22T13:41:34;13.90;;;7.90;;
50301;SDS011;36550;50.472;19.744;2024-03-22T13:44:18;10.70;;;7.30;;
50301;SDS011;36550;50.472;19.744;2024-03-22T13:47:02;15.60;;;8.80;;
50301;SDS011;36550;50.472;19.744;2024-03-22T13:49:48;14.10;;;9.10;;
50301;SDS011;36550;50.472;19.744;2024-03-22T13:52:33;15.10;;;9.90;;
50301;SDS011;36550;50.472;19.744;2024-03-22T13:55:17;16.70;;;9.20;;
50301;SDS011;36550;50.472;19.744;2024-03-22T13:58:01;15.60;;;9.70;;
50301;SDS011;36550;50.472;19.744;2024-03-22T14:00:45;11.70;;;9.10;;
50301;SDS011;36550;50.472;19.744;2024-03-22T14:03:29;10.60;;;9.10;;
50301;SDS011;36550;50.472;19.744;2024-03-22T14:06:14;13.20;;;8.90;;
50301;SDS011;36550;50.472;19.744;2024-03-22T14:08:58;17.30;;;11.20;;
50301;SDS011;36550;50.472;19.744;2024-03-22T14:11:44;21.10;;;12.60;;
50301;SDS011;36550;50.472;19.744;2024-03-22T14:14:29;15.20;;;10.80;;
50301;SDS011;36550;50.472;19.744;2024-03-22T14:17:13;15.20;;;10.50;;
50301;SDS011;36550;50.472;19.744;2024-03-22T14:19:57;17.40;;;11.70;;
50301;SDS011;36550;50.472;19.744;2024-03-22T14:22:41;15.50;;;11.40;;
50301;SDS011;36550;50.472;19.744;2024-03-22T14:25:25;15.80;;;11.90;;
50301;SDS011;36550;50.472;19.744;2024-03-22T14:28:11;17.40;;;12.50;;
50301;SDS011;36550;50.472;19.744;2024-03-22T14:30:55;15.30;;;11.00;;
50301;SDS011;36550;50.472;19.744;2024-03-22T14:33:39;18.00;;;11.20;;
50301;SDS011;36550;50.472;19.744;2024-03-22T14:36:23;14.20;;;11.70;;
50301;SDS011;36550;50.472;19.744;2024-03-22T14:39:08;21.20;;;14.00;;
50301;SDS011;36550;50.472;19.744;2024-03-22T14:41:52;19.70;;;14.00;;
50301;SDS011;36550;50.472;19.744;2024-03-22T14:44:36;31.90;;;20.70;;
50301;SDS011;36550;50.472;19.744;2024-03-22T14:47:21;27.60;;;19.10;;
50301;SDS011;36550;50.472;19.744;2024-03-22T14:50:06;100.70;;;63.40;;
50301;SDS011;36550;50.472;19.744;2024-03-22T14:52:51;77.50;;;48.10;;
50301;SDS011;36550;50.472;19.744;2024-03-22T14:55:35;123.20;;;75.80;;
50301;SDS011;36550;50.472;19.744;2024-03-22T14:58:20;138.10;;;82.50;;
50301;SDS011;36550;50.472;19.744;2024-03-22T15:01:05;115.30;;;66.20;;
50301;SDS011;36550;50.472;19.744;2024-03-22T15:03:50;109.60;;;59.20;;
50301;SDS011;36550;50.472;19.744;2024-03-22T15:06:35;91.20;;;57.50;;
50301;SDS011;36550;50.472;19.744;2024-03-22T15:09:19;70.40;;;43.80;;
50301;SDS011;36550;50.472;19.744;2024-03-22T15:12:04;71.30;;;47.60;;
50301;SDS011;36550;50.472;19.744;2024-03-22T15:14:52;50.40;;;33.20;;
50301;SDS011;36550;50.472;19.744;2024-03-22T15:17:39;86.10;;;51.30;;
50301;SDS011;36550;50.472;19.744;2024-03-22T15:20:24;164.50;;;88.00;;
50301;SDS011;36550;50.472;19.744;2024-03-22T15:23:11;82.40;;;51.20;;
50301;SDS011;36550;50.472;19.744;2024-03-22T15:25:55;68.10;;;45.50;;
50301;SDS011;36550;50.472;19.744;2024-03-22T15:28:38;30.70;;;19.10;;
50301;SDS011;36550;50.472;19.744;2024-03-22T15:31:24;33.80;;;22.80;;
50301;SDS011;36550;50.472;19.744;2024-03-22T15:34:08;24.60;;;16.60;;
50301;SDS011;36550;50.472;19.744;2024-03-22T15:36:52;25.30;;;17.20;;
50301;SDS011;36550;50.472;19.744;2024-03-22T15:39:37;24.50;;;16.00;;
50301;SDS011;36550;50.472;19.744;2024-03-22T15:42:21;51.50;;;31.10;;
50301;SDS011;36550;50.472;19.744;2024-03-22T15:45:06;52.70;;;31.20;;
50301;SDS011;36550;50.472;19.744;2024-03-22T15:47:50;25.90;;;16.10;;
50301;SDS011;36550;50.472;19.744;2024-03-22T15:50:35;29.50;;;20.00;;
50301;SDS011;36550;50.472;19.744;2024-03-22T15:53:20;32.00;;;20.10;;
50301;SDS011;36550;50.472;19.744;2024-03-22T15:56:04;41.60;;;28.70;;